sensor_id;sensor_type;location;lat;lon;timestamp;pressure;altitude;pressure_sealevel;temperature;humidity
32638;BME280;19045;52.268;10.506;2022-09-21T00:01:49;101565.31;;;7.92;100.00
32638;BME280;19045;52.268;10.506;2022-09-21T00:04:16;101572.94;;;7.95;100.00
32638;BME280;19045;52.268;10.506;2022-09-21T00:06:44;101578.31;;;7.88;100.00
32638;BME280;19045;52.268;10.506;2022-09-21T00:09:11;101571.91;;;7.89;100.00
32638;BME280;19045;52.268;10.506;2022-09-21T00:11:37;101581.38;;;7.92;100.00
32638;BME280;19045;52.268;10.506;2022-09-21T00:14:09;101570.91;;;7.84;100.00
32638;BME280;19045;52.268;10.506;2022-09-21T00:16:37;101574.56;;;7.89;100.00
32638;BME280;19045;52.268;10.506;2022-09-21T00:19:04;101575.59;;;7.95;100.00
32638;BME280;19045;52.268;10.506;2022-09-21T00:21:31;101579.31;;;7.87;100.00
32638;BME280;19045;52.268;10.506;2022-09-21T00:23:58;101568.81;;;7.86;100.00
32638;BME280;19045;52.268;10.506;2022-09-21T00:26:27;101578.50;;;7.87;100.00
32638;BME280;19045;52.268;10.506;2022-09-21T00:28:54;101578.03;;;7.96;100.00
32638;BME280;19045;52.268;10.506;2022-09-21T00:31:23;101573.97;;;7.87;100.00
32638;BME280;19045;52.268;10.506;2022-09-21T00:33:50;101585.09;;;7.84;100.00
32638;BME280;19045;52.268;10.506;2022-09-21T00:36:19;101583.44;;;7.83;100.00
32638;BME280;19045;52.268;10.506;2022-09-21T00:38:49;101573.16;;;7.80;100.00
32638;BME280;19045;52.268;10.506;2022-09-21T00:41:16;101574.81;;;7.81;100.00
32638;BME280;19045;52.268;10.506;2022-09-21T00:43:46;101581.81;;;7.69;100.00
32638;BME280;19045;52.268;10.506;2022-09-21T00:46:16;101578.97;;;7.70;100.00
32638;BME280;19045;52.268;10.506;2022-09-21T00:48:48;101576.09;;;7.72;100.00
32638;BME280;19045;52.268;10.506;2022-09-21T00:51:15;101575.69;;;7.62;100.00
32638;BME280;19045;52.268;10.506;2022-09-21T00:53:43;101581.06;;;7.62;100.00
32638;BME280;19045;52.268;10.506;2022-09-21T00:56:11;101586.81;;;7.65;100.00
32638;BME280;19045;52.268;10.506;2022-09-21T00:58:41;101583.94;;;7.54;100.00
32638;BME280;19045;52.268;10.506;2022-09-21T01:01:11;101590.94;;;7.55;100.00
32638;BME280;19045;52.268;10.506;2022-09-21T01:03:43;101589.84;;;7.69;100.00
32638;BME280;19045;52.268;10.506;2022-09-21T01:06:12;101601.19;;;7.64;100.00
32638;BME280;19045;52.268;10.506;2022-09-21T01:08:39;101593.81;;;7.53;100.00
32638;BME280;19045;52.268;10.506;2022-09-21T01:11:21;101601.41;;;7.50;100.00
32638;BME280;19045;52.268;10.506;2022-09-21T01:14:09;101594.41;;;7.62;100.00
32638;BME280;19045;52.268;10.506;2022-09-21T01:16:46;101604.06;;;7.63;100.00
32638;BME280;19045;52.268;10.506;2022-09-21T01:19:37;101609.41;;;7.63;100.00
32638;BME280;19045;52.268;10.506;2022-09-21T01:22:17;101608.19;;;7.72;100.00
32638;BME280;19045;52.268;10.506;2022-09-21T01:24:51;101607.56;;;7.63;100.00
32638;BME280;19045;52.268;10.506;2022-09-21T01:27:45;101613.56;;;7.52;100.00
32638;BME280;19045;52.268;10.506;2022-09-21T01:30:16;101613.53;;;7.65;100.00
32638;BME280;19045;52.268;10.506;2022-09-21T01:32:47;101611.47;;;7.67;100.00
32638;BME280;19045;52.268;10.506;2022-09-21T01:35:19;101609.03;;;7.53;100.00
32638;BME280;19045;52.268;10.506;2022-09-21T01:37:51;101608.00;;;7.41;100.00
32638;BME280;19045;52.268;10.506;2022-09-21T01:40:21;101602.25;;;7.44;100.00
32638;BME280;19045;52.268;10.506;2022-09-21T01:42:50;101607.19;;;7.47;100.00
32638;BME280;19045;52.268;10.506;2022-09-21T01:45:24;101612.13;;;7.37;100.00
32638;BME280;19045;52.268;10.506;2022-09-21T01:47:54;101616.66;;;7.29;100.00
32638;BME280;19045;52.268;10.506;2022-09-21T01:50:22;101619.72;;;7.40;100.00
32638;BME280;19045;52.268;10.506;2022-09-21T01:52:54;101614.78;;;7.37;100.00
32638;BME280;19045;52.268;10.506;2022-09-21T01:55:24;101617.06;;;7.33;100.00
32638;BME280;19045;52.268;10.506;2022-09-21T01:57:57;101617.47;;;7.43;100.00
32638;BME280;19045;52.268;10.506;2022-09-21T02:00:27;101611.50;;;7.41;100.00
32638;BME280;19045;52.268;10.506;2022-09-21T02:02:58;101620.34;;;7.42;100.00
32638;BME280;19045;52.268;10.506;2022-09-21T02:05:27;101613.78;;;7.44;100.00
32638;BME280;19045;52.268;10.506;2022-09-21T02:07:55;101615.44;;;7.45;100.00
32638;BME280;19045;52.268;10.506;2022-09-21T02:10:26;101614.59;;;7.45;100.00
32638;BME280;19045;52.268;10.506;2022-09-21T02:13:01;101621.19;;;7.36;100.00
32638;BME280;19045;52.268;10.506;2022-09-21T02:15:54;101618.09;;;7.25;100.00
32638;BME280;19045;52.268;10.506;2022-09-21T02:18:36;101613.16;;;7.22;100.00
32638;BME280;19045;52.268;10.506;2022-09-21T02:21:11;101614.19;;;7.21;100.00
32638;BME280;19045;52.268;10.506;2022-09-21T02:23:42;101609.88;;;7.14;100.00
32638;BME280;19045;52.268;10.506;2022-09-21T02:26:13;101607.63;;;7.17;100.00
32638;BME280;19045;52.268;10.506;2022-09-21T02:28:46;101618.72;;;7.14;100.00
32638;BME280;19045;52.268;10.506;2022-09-21T02:31:21;101611.94;;;7.25;100.00
32638;BME280;19045;52.268;10.506;2022-09-21T02:33:56;101616.03;;;7.27;100.00
32638;BME280;19045;52.268;10.506;2022-09-21T02:36:30;101610.28;;;7.17;100.00
32638;BME280;19045;52.268;10.506;2022-09-21T02:39:03;101616.63;;;7.03;100.00
32638;BME280;19045;52.268;10.506;2022-09-21T02:41:36;101613.38;;;7.01;100.00
32638;BME280;19045;52.268;10.506;2022-09-21T02:44:11;101607.63;;;7.17;100.00
32638;BME280;19045;52.268;10.506;2022-09-21T02:46:46;101601.25;;;7.12;100.00
32638;BME280;19045;52.268;10.506;2022-09-21T02:49:18;101607.41;;;7.06;100.00
32638;BME280;19045;52.268;10.506;2022-09-21T02:51:49;101611.94;;;7.05;100.00
32638;BME280;19045;52.268;10.506;2022-09-21T02:54:23;101613.13;;;6.96;100.00
32638;BME280;19045;52.268;10.506;2022-09-21T02:56:53;101607.59;;;6.91;100.00
32638;BME280;19045;52.268;10.506;2022-09-21T02:59:21;101612.72;;;6.86;100.00
32638;BME280;19045;52.268;10.506;2022-09-21T03:01:50;101618.06;;;6.93;100.00
32638;BME280;19045;52.268;10.506;2022-09-21T03:04:17;101628.38;;;6.96;100.00
32638;BME280;19045;52.268;10.506;2022-09-21T03:06:44;101624.66;;;6.90;100.00
32638;BME280;19045;52.268;10.506;2022-09-21T03:09:10;101623.00;;;6.83;100.00
32638;BME280;19045;52.268;10.506;2022-09-21T03:11:37;101626.72;;;6.88;100.00
32638;BME280;19045;52.268;10.506;2022-09-21T03:14:07;101629.81;;;6.98;100.00
32638;BME280;19045;52.268;10.506;2022-09-21T03:16:33;101631.84;;;6.96;100.00
32638;BME280;19045;52.268;10.506;2022-09-21T03:19:02;101633.91;;;7.01;100.00
32638;BME280;19045;52.268;10.506;2022-09-21T03:21:28;101636.81;;;7.06;100.00
32638;BME280;19045;52.268;10.506;2022-09-21T03:23:55;101623.22;;;7.07;100.00
32638;BME280;19045;52.268;10.506;2022-09-21T03:26:22;101632.91;;;7.08;100.00
32638;BME280;19045;52.268;10.506;2022-09-21T03:28:49;101632.06;;;7.08;100.00
32638;BME280;19045;52.268;10.506;2022-09-21T03:31:15;101637.41;;;7.01;100.00
32638;BME280;19045;52.268;10.506;2022-09-21T03:33:42;101637.38;;;6.88;100.00
32638;BME280;19045;52.268;10.506;2022-09-21T03:36:10;101629.16;;;6.83;100.00
32638;BME280;19045;52.268;10.506;2022-09-21T03:38:37;101638.97;;;6.69;100.00
32638;BME280;19045;52.268;10.506;2022-09-21T03:41:04;101636.94;;;6.71;100.00
32638;BME280;19045;52.268;10.506;2022-09-21T03:43:31;101640.88;;;6.75;100.00
32638;BME280;19045;52.268;10.506;2022-09-21T03:45:58;101639.81;;;6.70;100.00
32638;BME280;19045;52.268;10.506;2022-09-21T03:48:25;101638.59;;;6.66;100.00
32638;BME280;19045;52.268;10.506;2022-09-21T03:50:52;101639.63;;;6.71;100.00
32638;BME280;19045;52.268;10.506;2022-09-21T03:53:19;101636.75;;;6.80;100.00
32638;BME280;19045;52.268;10.506;2022-09-21T03:55:46;101641.06;;;6.81;100.00
32638;BME280;19045;52.268;10.506;2022-09-21T03:58:14;101640.47;;;6.79;100.00
32638;BME280;19045;52.268;10.506;2022-09-21T04:00:40;101634.88;;;6.67;100.00
32638;BME280;19045;52.268;10.506;2022-09-21T04:03:07;101642.28;;;6.65;100.00
32638;BME280;19045;52.268;10.506;2022-09-21T04:05:34;101650.03;;;6.60;100.00
32638;BME280;19045;52.268;10.506;2022-09-21T04:08:00;101646.75;;;6.58;100.00
32638;BME280;19045;52.268;10.506;2022-09-21T04:10:28;101647.78;;;6.63;100.00
32638;BME280;19045;52.268;10.506;2022-09-21T04:12:58;101651.75;;;6.81;100.00
32638;BME280;19045;52.268;10.506;2022-09-21T04:15:27;101648.91;;;6.89;100.00
32638;BME280;19045;52.268;10.506;2022-09-21T04:17:54;101643.56;;;6.89;100.00
32638;BME280;19045;52.268;10.506;2022-09-21T04:20:21;101655.44;;;6.80;100.00
32638;BME280;19045;52.268;10.506;2022-09-21T04:22:48;101648.03;;;6.68;100.00
32638;BME280;19045;52.268;10.506;2022-09-21T04:25:16;101646.97;;;6.63;100.00
32638;BME280;19045;52.268;10.506;2022-09-21T04:27:44;101654.38;;;6.61;100.00
32638;BME280;19045;52.268;10.506;2022-09-21T04:30:11;101652.50;;;6.55;100.00
32638;BME280;19045;52.268;10.506;2022-09-21T04:32:38;101650.03;;;6.53;100.00
32638;BME280;19045;52.268;10.506;2022-09-21T04:35:06;101650.84;;;6.54;100.00
32638;BME280;19045;52.268;10.506;2022-09-21T04:37:33;101655.53;;;7.25;100.00
32638;BME280;19045;52.268;10.506;2022-09-21T04:40:00;101649.94;;;7.47;100.00
32638;BME280;19045;52.268;10.506;2022-09-21T04:42:27;101648.72;;;7.43;100.00
32638;BME280;19045;52.268;10.506;2022-09-21T04:44:55;101652.63;;;7.53;100.00
32638;BME280;19045;52.268;10.506;2022-09-21T04:47:21;101656.53;;;7.51;100.00
32638;BME280;19045;52.268;10.506;2022-09-21T04:49:49;101657.38;;;7.45;100.00
32638;BME280;19045;52.268;10.506;2022-09-21T04:52:17;101659.41;;;7.43;100.00
32638;BME280;19045;52.268;10.506;2022-09-21T04:54:43;101659.41;;;7.56;100.00
32638;BME280;19045;52.268;10.506;2022-09-21T04:57:11;101661.16;;;8.14;100.00
32638;BME280;19045;52.268;10.506;2022-09-21T04:59:37;101655.41;;;8.62;100.00
32638;BME280;19045;52.268;10.506;2022-09-21T05:02:06;101660.91;;;8.29;100.00
32638;BME280;19045;52.268;10.506;2022-09-21T05:04:33;101671.09;;;7.94;100.00
32638;BME280;19045;52.268;10.506;2022-09-21T05:06:59;101671.31;;;7.66;100.00
32638;BME280;19045;52.268;10.506;2022-09-21T05:09:26;101677.31;;;7.36;100.00
32638;BME280;19045;52.268;10.506;2022-09-21T05:12:10;101675.44;;;7.16;100.00
32638;BME280;19045;52.268;10.506;2022-09-21T05:14:37;101675.84;;;7.07;100.00
32638;BME280;19045;52.268;10.506;2022-09-21T05:17:03;101674.19;;;6.99;100.00
32638;BME280;19045;52.268;10.506;2022-09-21T05:19:31;101678.69;;;6.92;100.00
32638;BME280;19045;52.268;10.506;2022-09-21T05:21:58;101671.44;;;6.80;100.00
32638;BME280;19045;52.268;10.506;2022-09-21T05:24:24;101680.50;;;6.72;100.00
32638;BME280;19045;52.268;10.506;2022-09-21T05:26:51;101675.38;;;6.84;100.00
32638;BME280;19045;52.268;10.506;2022-09-21T05:29:18;101679.31;;;6.94;100.00
32638;BME280;19045;52.268;10.506;2022-09-21T05:31:47;101692.91;;;6.99;100.00
32638;BME280;19045;52.268;10.506;2022-09-21T05:34:23;101681.81;;;7.02;100.00
32638;BME280;19045;52.268;10.506;2022-09-21T05:37:02;101696.19;;;7.01;100.00
32638;BME280;19045;52.268;10.506;2022-09-21T05:39:31;101691.25;;;7.05;100.00
32638;BME280;19045;52.268;10.506;2022-09-21T05:41:59;101695.38;;;7.14;100.00
32638;BME280;19045;52.268;10.506;2022-09-21T05:44:26;101691.69;;;7.28;100.00
32638;BME280;19045;52.268;10.506;2022-09-21T05:46:58;101699.91;;;7.40;100.00
32638;BME280;19045;52.268;10.506;2022-09-21T05:49:36;101696.22;;;7.47;100.00
32638;BME280;19045;52.268;10.506;2022-09-21T05:52:14;101695.22;;;7.61;100.00
32638;BME280;19045;52.268;10.506;2022-09-21T05:54:54;101700.97;;;7.78;100.00
32638;BME280;19045;52.268;10.506;2022-09-21T05:57:33;101701.13;;;8.03;100.00
32638;BME280;19045;52.268;10.506;2022-09-21T06:00:12;101704.16;;;8.19;100.00
32638;BME280;19045;52.268;10.506;2022-09-21T06:02:49;101701.06;;;8.22;100.00
32638;BME280;19045;52.268;10.506;2022-09-21T06:05:19;101700.84;;;8.44;100.00
32638;BME280;19045;52.268;10.506;2022-09-21T06:07:47;101705.72;;;8.60;100.00
32638;BME280;19045;52.268;10.506;2022-09-21T06:10:15;101705.06;;;8.71;100.00
32638;BME280;19045;52.268;10.506;2022-09-21T06:12:42;101708.63;;;8.96;100.00
32638;BME280;19045;52.268;10.506;2022-09-21T06:15:11;101715.63;;;8.97;100.00
32638;BME280;19045;52.268;10.506;2022-09-21T06:17:38;101718.72;;;9.01;100.00
32638;BME280;19045;52.268;10.506;2022-09-21T06:20:06;101719.69;;;9.06;100.00
32638;BME280;19045;52.268;10.506;2022-09-21T06:22:33;101718.19;;;8.79;100.00
32638;BME280;19045;52.268;10.506;2022-09-21T06:25:01;101714.06;;;8.83;100.00
32638;BME280;19045;52.268;10.506;2022-09-21T06:27:28;101718.19;;;8.79;100.00
32638;BME280;19045;52.268;10.506;2022-09-21T06:29:54;101727.97;;;9.05;100.00
32638;BME280;19045;52.268;10.506;2022-09-21T06:32:21;101725.06;;;9.38;100.00
32638;BME280;19045;52.268;10.506;2022-09-21T06:34:48;101726.53;;;9.58;100.00
32638;BME280;19045;52.268;10.506;2022-09-21T06:37:15;101725.72;;;9.82;100.00
32638;BME280;19045;52.268;10.506;2022-09-21T06:39:41;101726.28;;;10.16;100.00
32638;BME280;19045;52.268;10.506;2022-09-21T06:42:09;101723.84;;;10.08;98.75
32638;BME280;19045;52.268;10.506;2022-09-21T06:44:36;101729.38;;;10.13;99.56
32638;BME280;19045;52.268;10.506;2022-09-21T06:47:03;101725.75;;;10.25;99.02
32638;BME280;19045;52.268;10.506;2022-09-21T06:49:30;101725.47;;;10.33;98.44
32638;BME280;19045;52.268;10.506;2022-09-21T06:51:56;101729.53;;;10.18;99.28
32638;BME280;19045;52.268;10.506;2022-09-21T06:54:24;101730.69;;;10.28;99.46
32638;BME280;19045;52.268;10.506;2022-09-21T06:56:50;101737.59;;;10.18;99.01
32638;BME280;19045;52.268;10.506;2022-09-21T06:59:18;101726.13;;;10.04;100.00
32638;BME280;19045;52.268;10.506;2022-09-21T07:01:45;101735.56;;;10.13;100.00
32638;BME280;19045;52.268;10.506;2022-09-21T07:04:11;101744.03;;;10.17;100.00
32638;BME280;19045;52.268;10.506;2022-09-21T07:06:38;101736.72;;;10.42;100.00
32638;BME280;19045;52.268;10.506;2022-09-21T07:09:05;101735.53;;;11.04;98.01
32638;BME280;19045;52.268;10.506;2022-09-21T07:11:31;101734.03;;;11.08;96.08
32638;BME280;19045;52.268;10.506;2022-09-21T07:13:58;101735.91;;;11.08;95.54
32638;BME280;19045;52.268;10.506;2022-09-21T07:16:26;101736.94;;;11.36;94.11
32638;BME280;19045;52.268;10.506;2022-09-21T07:18:53;101741.66;;;11.53;93.62
32638;BME280;19045;52.268;10.506;2022-09-21T07:21:19;101748.03;;;11.81;92.43
32638;BME280;19045;52.268;10.506;2022-09-21T07:23:46;101732.03;;;11.98;92.63
32638;BME280;19045;52.268;10.506;2022-09-21T07:26:13;101753.78;;;12.31;89.90
32638;BME280;19045;52.268;10.506;2022-09-21T07:28:40;101746.25;;;12.57;87.93
32638;BME280;19045;52.268;10.506;2022-09-21T07:31:07;101746.88;;;12.35;89.75
32638;BME280;19045;52.268;10.506;2022-09-21T07:33:36;101743.44;;;12.52;89.96
32638;BME280;19045;52.268;10.506;2022-09-21T07:36:11;101742.72;;;12.96;87.54
32638;BME280;19045;52.268;10.506;2022-09-21T07:38:42;101742.34;;;12.13;90.87
32638;BME280;19045;52.268;10.506;2022-09-21T07:41:10;101750.41;;;12.24;90.11
32638;BME280;19045;52.268;10.506;2022-09-21T07:43:37;101750.78;;;12.16;91.44
32638;BME280;19045;52.268;10.506;2022-09-21T07:46:05;101743.22;;;12.41;90.28
32638;BME280;19045;52.268;10.506;2022-09-21T07:48:31;101745.06;;;13.32;89.17
32638;BME280;19045;52.268;10.506;2022-09-21T07:51:04;101743.53;;;12.68;86.49
32638;BME280;19045;52.268;10.506;2022-09-21T07:53:31;101747.06;;;13.09;87.25
32638;BME280;19045;52.268;10.506;2022-09-21T07:56:02;101741.81;;;13.97;85.71
32638;BME280;19045;52.268;10.506;2022-09-21T07:58:29;101748.25;;;14.68;81.17
32638;BME280;19045;52.268;10.506;2022-09-21T08:01:13;101745.69;;;15.31;77.74
32638;BME280;19045;52.268;10.506;2022-09-21T08:03:40;101751.25;;;15.73;75.56
32638;BME280;19045;52.268;10.506;2022-09-21T08:06:08;101749.78;;;15.92;74.30
32638;BME280;19045;52.268;10.506;2022-09-21T08:08:35;101746.16;;;15.23;75.14
32638;BME280;19045;52.268;10.506;2022-09-21T08:11:03;101751.66;;;15.07;77.64
32638;BME280;19045;52.268;10.506;2022-09-21T08:13:30;101751.84;;;14.52;78.10
32638;BME280;19045;52.268;10.506;2022-09-21T08:15:57;101753.56;;;14.41;80.45
32638;BME280;19045;52.268;10.506;2022-09-21T08:18:24;101747.53;;;14.34;80.24
32638;BME280;19045;52.268;10.506;2022-09-21T08:20:54;101747.53;;;14.34;80.24
32638;BME280;19045;52.268;10.506;2022-09-21T08:23:22;101743.03;;;14.61;79.50
32638;BME280;19045;52.268;10.506;2022-09-21T08:25:50;101751.25;;;14.49;78.93
32638;BME280;19045;52.268;10.506;2022-09-21T08:28:17;101756.41;;;14.94;78.72
32638;BME280;19045;52.268;10.506;2022-09-21T08:30:44;101746.53;;;14.83;79.18
32638;BME280;19045;52.268;10.506;2022-09-21T08:33:10;101759.03;;;15.65;76.15
32638;BME280;19045;52.268;10.506;2022-09-21T08:35:37;101747.31;;;16.33;70.61
32638;BME280;19045;52.268;10.506;2022-09-21T08:38:04;101749.53;;;16.93;69.97
32638;BME280;19045;52.268;10.506;2022-09-21T08:40:33;101746.94;;;17.99;63.60
32638;BME280;19045;52.268;10.506;2022-09-21T08:43:02;101747.78;;;17.59;65.65
32638;BME280;19045;52.268;10.506;2022-09-21T08:45:32;101752.03;;;18.36;60.30
32638;BME280;19045;52.268;10.506;2022-09-21T08:48:04;101745.78;;;18.35;62.89
32638;BME280;19045;52.268;10.506;2022-09-21T08:50:40;101746.75;;;19.24;60.07
32638;BME280;19045;52.268;10.506;2022-09-21T08:53:09;101750.16;;;20.83;54.61
32638;BME280;19045;52.268;10.506;2022-09-21T08:55:38;101751.72;;;21.08;53.43
32638;BME280;19045;52.268;10.506;2022-09-21T08:58:19;101746.56;;;23.04;49.12
32638;BME280;19045;52.268;10.506;2022-09-21T09:00:49;101749.75;;;24.22;46.28
32638;BME280;19045;52.268;10.506;2022-09-21T09:03:28;101754.19;;;25.23;43.92
32638;BME280;19045;52.268;10.506;2022-09-21T09:06:05;101768.94;;;21.64;48.46
32638;BME280;19045;52.268;10.506;2022-09-21T09:08:58;101760.34;;;23.26;47.85
32638;BME280;19045;52.268;10.506;2022-09-21T09:11:39;101755.69;;;25.29;43.15
32638;BME280;19045;52.268;10.506;2022-09-21T09:14:21;101754.09;;;22.03;48.40
32638;BME280;19045;52.268;10.506;2022-09-21T09:17:04;101755.97;;;24.45;45.03
32638;BME280;19045;52.268;10.506;2022-09-21T09:19:42;101754.16;;;26.46;40.40
32638;BME280;19045;52.268;10.506;2022-09-21T09:22:15;101752.94;;;23.93;43.17
32638;BME280;19045;52.268;10.506;2022-09-21T09:24:47;101761.81;;;23.68;44.76
32638;BME280;19045;52.268;10.506;2022-09-21T09:27:18;101753.13;;;24.19;44.24
32638;BME280;19045;52.268;10.506;2022-09-21T09:29:51;101750.16;;;25.11;42.54
32638;BME280;19045;52.268;10.506;2022-09-21T09:32:28;101752.97;;;26.85;40.31
32638;BME280;19045;52.268;10.506;2022-09-21T09:35:01;101754.44;;;28.43;36.71
32638;BME280;19045;52.268;10.506;2022-09-21T09:37:33;101753.31;;;27.99;36.66
32638;BME280;19045;52.268;10.506;2022-09-21T09:40:05;101752.34;;;28.64;35.75
32638;BME280;19045;52.268;10.506;2022-09-21T09:42:48;101748.47;;;30.01;32.75
32638;BME280;19045;52.268;10.506;2022-09-21T09:45:30;101734.22;;;31.15;32.62
32638;BME280;19045;52.268;10.506;2022-09-21T09:48:09;101739.91;;;32.78;29.58
32638;BME280;19045;52.268;10.506;2022-09-21T09:50:40;101731.06;;;34.02;28.01
32638;BME280;19045;52.268;10.506;2022-09-21T09:53:10;101739.66;;;34.23;26.96
32638;BME280;19045;52.268;10.506;2022-09-21T09:55:39;101741.25;;;34.75;26.61
32638;BME280;19045;52.268;10.506;2022-09-21T09:58:16;101735.78;;;35.04;26.66
32638;BME280;19045;52.268;10.506;2022-09-21T10:00:43;101746.09;;;28.31;33.03
32638;BME280;19045;52.268;10.506;2022-09-21T10:03:15;101733.91;;;27.75;34.60
32638;BME280;19045;52.268;10.506;2022-09-21T10:05:43;101738.59;;;28.07;34.16
32638;BME280;19045;52.268;10.506;2022-09-21T10:08:41;101732.00;;;31.44;30.23
32638;BME280;19045;52.268;10.506;2022-09-21T10:11:09;101734.38;;;32.29;29.04
32638;BME280;19045;52.268;10.506;2022-09-21T10:13:38;101736.22;;;33.26;27.58
32638;BME280;19045;52.268;10.506;2022-09-21T10:16:11;101738.91;;;32.90;27.20
32638;BME280;19045;52.268;10.506;2022-09-21T10:18:44;101726.22;;;35.05;25.43
32638;BME280;19045;52.268;10.506;2022-09-21T10:21:16;101730.28;;;35.14;24.94
32638;BME280;19045;52.268;10.506;2022-09-21T10:23:46;101732.81;;;31.86;29.44
32638;BME280;19045;52.268;10.506;2022-09-21T10:26:15;101726.78;;;33.71;27.14
32638;BME280;19045;52.268;10.506;2022-09-21T10:28:56;101733.28;;;34.23;24.84
32638;BME280;19045;52.268;10.506;2022-09-21T10:31:24;101723.31;;;31.87;27.64
32638;BME280;19045;52.268;10.506;2022-09-21T10:34:15;101732.81;;;28.00;32.18
32638;BME280;19045;52.268;10.506;2022-09-21T10:36:49;101726.00;;;27.86;34.39
32638;BME280;19045;52.268;10.506;2022-09-21T10:39:18;101718.84;;;30.87;28.62
32638;BME280;19045;52.268;10.506;2022-09-21T10:41:49;101720.19;;;34.34;25.44
32638;BME280;19045;52.268;10.506;2022-09-21T10:44:21;101710.81;;;36.91;21.58
32638;BME280;19045;52.268;10.506;2022-09-21T10:46:49;101711.06;;;35.06;22.96
32638;BME280;19045;52.268;10.506;2022-09-21T10:49:20;101713.63;;;35.39;23.68
32638;BME280;19045;52.268;10.506;2022-09-21T10:51:48;101712.41;;;37.75;21.09
32638;BME280;19045;52.268;10.506;2022-09-21T10:54:23;101704.53;;;36.48;21.90
32638;BME280;19045;52.268;10.506;2022-09-21T10:56:58;101709.91;;;38.36;21.10
32638;BME280;19045;52.268;10.506;2022-09-21T10:59:29;101714.63;;;39.74;19.85
32638;BME280;19045;52.268;10.506;2022-09-21T11:01:57;101694.75;;;41.14;18.97
32638;BME280;19045;52.268;10.506;2022-09-21T11:04:33;101704.31;;;37.92;20.66
32638;BME280;19045;52.268;10.506;2022-09-21T11:07:10;101702.06;;;33.33;24.96
32638;BME280;19045;52.268;10.506;2022-09-21T11:09:42;101703.31;;;30.00;27.42
32638;BME280;19045;52.268;10.506;2022-09-21T11:12:32;101694.75;;;26.87;30.75
32638;BME280;19045;52.268;10.506;2022-09-21T11:15:10;101704.69;;;23.70;36.05
32638;BME280;19045;52.268;10.506;2022-09-21T11:17:43;101711.09;;;21.57;41.21
32638;BME280;19045;52.268;10.506;2022-09-21T11:20:20;101705.13;;;20.81;43.53
32638;BME280;19045;52.268;10.506;2022-09-21T11:22:55;101699.84;;;23.45;40.72
32638;BME280;19045;52.268;10.506;2022-09-21T11:25:30;101692.06;;;29.50;30.75
32638;BME280;19045;52.268;10.506;2022-09-21T11:28:05;101691.16;;;32.58;25.67
32638;BME280;19045;52.268;10.506;2022-09-21T11:30:55;101685.34;;;37.44;21.12
32638;BME280;19045;52.268;10.506;2022-09-21T11:33:33;101688.34;;;40.31;19.25
32638;BME280;19045;52.268;10.506;2022-09-21T11:36:10;101691.31;;;41.42;17.57
32638;BME280;19045;52.268;10.506;2022-09-21T11:38:51;101684.09;;;42.06;17.18
32638;BME280;19045;52.268;10.506;2022-09-21T11:41:39;101681.50;;;42.72;16.71
32638;BME280;19045;52.268;10.506;2022-09-21T11:44:28;101683.25;;;38.14;19.61
32638;BME280;19045;52.268;10.506;2022-09-21T11:47:11;101685.09;;;37.21;20.77
32638;BME280;19045;52.268;10.506;2022-09-21T11:49:58;101693.03;;;29.42;28.36
32638;BME280;19045;52.268;10.506;2022-09-21T11:52:38;101689.03;;;26.62;32.35
32638;BME280;19045;52.268;10.506;2022-09-21T11:55:21;101696.19;;;24.50;35.21
32638;BME280;19045;52.268;10.506;2022-09-21T11:57:56;101696.50;;;22.49;37.80
32638;BME280;19045;52.268;10.506;2022-09-21T12:00:25;101689.00;;;21.54;41.07
32638;BME280;19045;52.268;10.506;2022-09-21T12:06:19;101679.81;;;23.22;38.16
32638;BME280;19045;52.268;10.506;2022-09-21T12:09:20;101678.56;;;22.15;41.06
32638;BME280;19045;52.268;10.506;2022-09-21T12:11:55;101677.03;;;21.31;43.05
32638;BME280;19045;52.268;10.506;2022-09-21T12:14:30;101677.34;;;21.30;43.16
32638;BME280;19045;52.268;10.506;2022-09-21T12:17:12;101681.78;;;20.70;44.70
32638;BME280;19045;52.268;10.506;2022-09-21T12:19:49;101676.44;;;20.12;45.39
32638;BME280;19045;52.268;10.506;2022-09-21T12:22:24;101675.53;;;19.40;45.04
32638;BME280;19045;52.268;10.506;2022-09-21T12:24:54;101675.78;;;19.00;46.03
32638;BME280;19045;52.268;10.506;2022-09-21T12:27:26;101677.91;;;18.64;46.65
32638;BME280;19045;52.268;10.506;2022-09-21T12:29:56;101672.56;;;18.39;46.99
32638;BME280;19045;52.268;10.506;2022-09-21T12:32:36;101666.63;;;18.27;46.50
32638;BME280;19045;52.268;10.506;2022-09-21T12:35:12;101669.13;;;18.08;45.81
32638;BME280;19045;52.268;10.506;2022-09-21T12:37:45;101676.78;;;17.91;46.91
32638;BME280;19045;52.268;10.506;2022-09-21T12:40:16;101676.25;;;17.99;47.67
32638;BME280;19045;52.268;10.506;2022-09-21T12:42:53;101669.66;;;18.15;47.25
32638;BME280;19045;52.268;10.506;2022-09-21T12:45:26;101666.56;;;18.52;46.65
32638;BME280;19045;52.268;10.506;2022-09-21T12:47:58;101667.44;;;18.86;45.30
32638;BME280;19045;52.268;10.506;2022-09-21T12:50:29;101666.34;;;18.92;45.65
32638;BME280;19045;52.268;10.506;2022-09-21T12:53:00;101663.47;;;19.46;44.71
32638;BME280;19045;52.268;10.506;2022-09-21T12:55:37;101666.69;;;20.06;43.84
32638;BME280;19045;52.268;10.506;2022-09-21T12:58:21;101664.59;;;19.45;44.19
32638;BME280;19045;52.268;10.506;2022-09-21T13:00:58;101661.94;;;19.35;44.94
32638;BME280;19045;52.268;10.506;2022-09-21T13:03:32;101653.09;;;19.15;44.98
32638;BME280;19045;52.268;10.506;2022-09-21T13:06:28;101653.91;;;18.07;47.88